Crete, IL (60417)

6:43 PM CDT on July 30, 2016 (GMT -0500)
Harperville | | Change Station
Active Advisory: Flood Warning, Flood Advisory Active Notice: Local Storm Report

Elev 659 ft 41.49 °N, 87.58 °W | Updated 12 seconds ago

Mostly Cloudy
Mostly Cloudy
75.7 °F
Feels Like 77 °F
N
2.0
Wind Variable Wind from NE
Gusts 4.9 mph

Today
High -- | Low -- °F
--% Chance of Precip.
Yesterday
High -- | Low -- °F
Precip. -- in
Pressure 29.97 in
Visibility 10.0 miles
Clouds Mostly Cloudy 2500 ft
Heat Index 77 °F
Dew Point 66 °F
Humidity 72%
Rainfall 0.00 in
Snow Depth Not available.
5:43 AM 8:09 PM
Waning Crescent, 10% visible
METAR KIGQ 302335Z AUTO 03009KT 10SM BKN025 22/17 A2997 RMK AO2 T02220174
Pressure 29.97 in
Visibility 10.0 miles
Clouds Mostly Cloudy 2500 ft
Heat Index 77 °F
Dew Point 66 °F
Humidity 72%
Rainfall 0.00 in
Snow Depth Not available.
5:43 AM 8:09 PM
Waning Crescent, 10% visible
METAR KIGQ 302335Z AUTO 03009KT 10SM BKN025 22/17 A2997 RMK AO2 T02220174

10-Day Weather Forecast

Almanac

Astronomy

Jul. 30, 2016 Rise Set
Actual Time
Civil Twilight
Nautical Twilight
Astronomical Twilight
Moon
Length of Visible Light
Length of Day
Tomorrow will be .
, % of the Moon is Illuminated

Today's Extremes

State Highs State Lows

Community

WunderPhotos

Upload Photos

1,928,680 photos uploaded!

WunderBlog® & News

Nearby

Air Quality

  Air Quality AQ Index Pollutant
Not available.

Snow Depth

Station Depth Elevation

Earthquake Activity

City Distance Mag. Time & Date
Minimum magnitude displayed is 2.5.

Coastal Water Temperatures

Place Temperature

Stations

Nearby Weather Stations

Station Location Temp. Windchill Dew Point Humidity Wind Precip. Elev Updated Type
                   

Watches & Warnings

Flood Warning
Issued: 7:56 AM CDT Jul. 30, 2016 – National Weather Service

The Flood Warning continues for
the East Branch Du Page river at Bolingbrook.
* Until late tonight.
* At 710 am Saturday the stage was 20.9 feet.
* Flood stage is 19.5 feet.
* Minor flooding is occurring and minor flooding is forecast.
* Forecast... the river will continue to fall to below flood stage by
tonight.


Lat... Lon 4172 8810 4170 8819 4169 8814 4170 8806
      4177 8805 4178 8810




Flood Advisory
Issued: 8:00 AM CDT Jul. 30, 2016 – National Weather Service

The Flood Advisory continues for
the Du Page river near Plainfield
* until late tonight.
* At 745 am Saturday the stage was 10.3 feet.
* Action stage is 10.0 feet.
* Flood stage is 12.0 feet.
* Forecast... the river will continue to fall.


Lat... Lon 4170 8819 4163 8822 4158 8825 4158 8819
      4162 8818 4170 8814